createdAt,value
2022-10-11T00:01:47.258Z,52.90
2022-10-11T00:04:15.053Z,53.00
2022-10-11T00:06:43.559Z,53.00
2022-10-11T00:09:11.607Z,52.90
2022-10-11T00:11:39.298Z,53.10
2022-10-11T00:14:07.070Z,52.90
2022-10-11T00:16:34.748Z,53.10
2022-10-11T00:19:02.750Z,53.10
2022-10-11T00:21:31.679Z,53.10
2022-10-11T00:23:59.379Z,53.10
2022-10-11T00:26:27.371Z,53.10
2022-10-11T00:28:55.153Z,53.10
2022-10-11T00:31:22.886Z,53.10
2022-10-11T00:33:50.777Z,53.20
2022-10-11T00:38:51.155Z,53.30
2022-10-11T00:41:19.029Z,53.10
2022-10-11T00:43:46.705Z,53.30
2022-10-11T00:46:14.537Z,53.20
2022-10-11T00:48:42.204Z,53.20
2022-10-11T00:51:09.916Z,53.20
2022-10-11T00:53:37.603Z,53.30
2022-10-11T00:56:05.478Z,53.10
2022-10-11T00:58:33.456Z,53.20
2022-10-11T01:01:01.393Z,53.30
2022-10-11T01:03:31.574Z,53.20
2022-10-11T04:38:33.314Z,53.00
2022-10-11T04:41:03.028Z,52.90
2022-10-11T04:43:31.233Z,52.90
2022-10-11T04:46:00.562Z,53.00
2022-10-11T04:48:29.186Z,53.00
2022-10-11T04:50:56.926Z,53.50
2022-10-11T04:53:24.625Z,53.50
2022-10-11T04:55:52.330Z,53.70
2022-10-11T04:58:20.006Z,53.70
2022-10-11T05:00:47.645Z,53.90
2022-10-11T05:03:15.358Z,53.70
2022-10-11T05:05:43.014Z,53.70
2022-10-11T05:08:10.701Z,53.50
2022-10-11T05:10:38.453Z,53.50
2022-10-11T05:13:06.165Z,53.50
2022-10-11T05:15:33.834Z,53.30
2022-10-11T05:18:01.484Z,53.40
2022-10-11T05:20:29.192Z,53.50
2022-10-11T05:22:56.901Z,53.30
2022-10-11T05:25:24.553Z,53.30
2022-10-11T05:27:52.244Z,53.40
2022-10-11T05:30:19.922Z,53.30
2022-10-11T05:32:47.759Z,53.20
2022-10-11T05:35:15.448Z,53.20
2022-10-11T05:37:43.202Z,53.20
2022-10-11T05:40:11.284Z,53.30
2022-10-11T05:42:38.972Z,53.20
2022-10-11T05:45:06.968Z,53.10
2022-10-11T05:47:34.748Z,53.10
2022-10-11T05:50:02.432Z,53.00
2022-10-11T05:52:30.091Z,53.00
2022-10-11T05:54:58.153Z,53.00
2022-10-11T05:57:25.851Z,53.10
2022-10-11T05:59:53.626Z,53.10
2022-10-11T06:02:21.341Z,53.00
2022-10-11T06:04:49.014Z,53.10
2022-10-11T06:07:16.715Z,53.10
2022-10-11T06:09:44.386Z,53.10
2022-10-11T06:12:12.029Z,53.10
2022-10-11T06:14:39.696Z,53.10
2022-10-11T06:17:07.371Z,53.10
2022-10-11T06:19:35.369Z,53.10
2022-10-11T06:22:03.076Z,53.10
2022-10-11T06:24:30.774Z,53.00
2022-10-11T06:26:58.468Z,53.00
2022-10-11T06:29:26.203Z,53.00
2022-10-11T06:31:53.853Z,53.00
2022-10-11T06:34:21.541Z,52.90
2022-10-11T06:36:49.278Z,52.90
2022-10-11T06:39:16.921Z,52.90
2022-10-11T06:41:44.603Z,53.00
2022-10-11T06:44:14.307Z,52.90
2022-10-11T06:46:42.152Z,52.90
2022-10-11T06:49:09.798Z,52.90
2022-10-11T06:51:37.430Z,52.90
2022-10-11T06:54:05.362Z,53.00
2022-10-11T06:56:33.056Z,52.90
2022-10-11T06:59:00.741Z,53.00
2022-10-11T07:01:28.515Z,53.00
2022-10-11T07:03:56.260Z,53.10
2022-10-11T07:06:24.137Z,53.00
2022-10-11T07:08:51.784Z,53.10
2022-10-11T07:11:19.450Z,53.00
2022-10-11T07:13:47.173Z,53.10
2022-10-11T07:16:14.844Z,53.10
2022-10-11T07:18:42.560Z,53.10
2022-10-11T07:21:10.303Z,53.10
2022-10-11T07:23:37.974Z,53.10
2022-10-11T07:26:05.931Z,53.10
2022-10-11T07:28:35.046Z,53.10
2022-10-11T07:31:02.887Z,53.20
2022-10-11T07:33:30.577Z,53.10
2022-10-11T07:35:58.343Z,53.10
2022-10-11T07:38:25.995Z,53.10
2022-10-11T07:41:09.305Z,53.10
2022-10-11T07:43:36.948Z,53.20
2022-10-11T07:46:05.314Z,53.10
2022-10-11T07:48:33.269Z,53.30
2022-10-11T07:51:01.013Z,53.30
2022-10-11T07:53:28.744Z,53.20
2022-10-11T07:55:56.419Z,53.10
2022-10-11T07:58:24.173Z,53.10
2022-10-11T08:00:51.919Z,53.10
2022-10-11T08:03:19.596Z,53.20
2022-10-11T08:05:47.379Z,53.30
2022-10-11T08:08:15.104Z,53.30
2022-10-11T08:10:42.920Z,53.30
2022-10-11T08:13:10.651Z,53.30
2022-10-11T08:15:38.326Z,53.30
2022-10-11T08:18:06.010Z,53.30
2022-10-11T08:20:33.876Z,53.30
2022-10-11T08:23:01.556Z,53.30
2022-10-11T08:25:29.196Z,53.40
2022-10-11T08:27:56.869Z,53.30
2022-10-11T08:30:24.557Z,53.30
2022-10-11T08:32:52.251Z,53.30
2022-10-11T08:35:19.961Z,53.30
2022-10-11T08:37:47.716Z,53.40
2022-10-11T08:40:15.406Z,53.40
2022-10-11T08:42:43.082Z,53.50
2022-10-11T08:45:12.054Z,53.40
2022-10-11T08:47:40.029Z,53.40
2022-10-11T08:50:07.724Z,53.50
2022-10-11T08:52:36.905Z,53.40
2022-10-11T08:55:04.581Z,53.50
2022-10-11T08:57:32.239Z,53.40
2022-10-11T08:59:59.968Z,53.40
2022-10-11T09:02:38.968Z,53.40
2022-10-11T09:05:11.567Z,53.40
2022-10-11T09:07:39.221Z,53.40
2022-10-11T09:10:06.895Z,53.30
2022-10-11T09:12:39.811Z,53.40
2022-10-11T09:15:08.972Z,53.40
2022-10-11T09:17:36.646Z,53.40
2022-10-11T09:20:04.355Z,53.50
2022-10-11T09:22:32.053Z,53.40
2022-10-11T09:24:59.775Z,53.30
2022-10-11T09:27:43.640Z,53.40
2022-10-11T09:30:16.226Z,53.50
2022-10-11T09:32:43.913Z,53.50
2022-10-11T09:35:11.601Z,53.50
2022-10-11T09:37:39.300Z,53.50
2022-10-11T09:40:06.985Z,53.50
2022-10-11T09:42:34.682Z,53.40
2022-10-11T09:45:02.391Z,53.50
2022-10-11T09:47:30.041Z,53.50
2022-10-11T09:49:57.712Z,53.30
2022-10-11T09:52:25.407Z,53.40
2022-10-11T09:54:53.106Z,53.30
2022-10-11T09:57:20.824Z,53.10
2022-10-11T09:59:48.547Z,53.00
2022-10-11T10:02:16.695Z,53.00
2022-10-11T10:04:44.367Z,53.00
2022-10-11T10:07:12.962Z,53.00
2022-10-11T10:09:40.695Z,53.00
2022-10-11T10:12:08.403Z,53.10
2022-10-11T10:14:36.134Z,53.10
2022-10-11T10:17:04.033Z,53.10
2022-10-11T10:19:31.743Z,52.80
2022-10-11T10:21:59.405Z,52.90
2022-10-11T10:24:27.120Z,52.70
2022-10-11T10:26:54.765Z,52.90
2022-10-11T10:29:22.457Z,52.90
2022-10-11T10:32:12.865Z,52.90
2022-10-11T10:34:37.713Z,53.00
2022-10-11T10:37:05.653Z,52.90
2022-10-11T10:39:33.530Z,52.90
2022-10-11T10:42:01.352Z,52.90
2022-10-11T10:44:29.076Z,52.80
2022-10-11T10:46:56.816Z,53.00
2022-10-11T10:49:52.026Z,52.80
2022-10-11T10:52:12.241Z,52.80
2022-10-11T10:54:39.912Z,52.90
2022-10-11T10:57:07.657Z,53.00
2022-10-11T10:59:35.340Z,52.80
2022-10-11T11:02:21.486Z,52.70
2022-10-11T11:04:50.797Z,52.70
2022-10-11T11:07:18.491Z,52.80
2022-10-11T11:09:46.181Z,52.70
2022-10-11T11:12:13.862Z,52.80
2022-10-11T11:14:41.537Z,52.70
2022-10-11T11:17:09.203Z,52.80
2022-10-11T11:19:36.930Z,52.80
2022-10-11T11:22:04.707Z,52.80
2022-10-11T11:24:32.477Z,52.70
2022-10-11T11:27:00.257Z,52.80
2022-10-11T11:29:27.910Z,52.70
2022-10-11T11:31:55.698Z,52.70
2022-10-11T11:34:23.354Z,52.80
2022-10-11T11:36:51.060Z,52.80
2022-10-11T11:39:19.056Z,52.80
2022-10-11T11:41:46.742Z,53.00
2022-10-11T11:44:14.606Z,52.90
2022-10-11T11:46:42.361Z,52.70
2022-10-11T11:49:12.986Z,52.80
2022-10-11T11:51:41.274Z,53.00
2022-10-11T11:54:09.432Z,53.10
2022-10-11T11:56:37.130Z,53.10
2022-10-11T11:59:04.816Z,53.10
2022-10-11T12:01:32.571Z,53.20
2022-10-11T12:04:00.295Z,53.10
2022-10-11T12:06:27.990Z,53.10
2022-10-11T12:08:55.727Z,52.90
2022-10-11T12:11:23.372Z,52.80
2022-10-11T12:13:51.066Z,52.60
2022-10-11T12:16:18.722Z,52.80
2022-10-11T12:18:47.630Z,52.70
2022-10-11T12:21:15.272Z,52.60
2022-10-11T12:23:43.038Z,52.50
2022-10-11T12:26:10.778Z,52.50
2022-10-11T12:28:38.593Z,52.40
2022-10-11T12:31:06.719Z,52.40
2022-10-11T12:33:34.879Z,52.30
2022-10-11T12:36:07.321Z,52.40
2022-10-11T12:38:37.303Z,52.20
2022-10-11T12:41:05.002Z,52.10
2022-10-11T12:43:32.759Z,51.90
2022-10-11T12:46:00.574Z,51.80
2022-10-11T12:48:33.237Z,52.10
2022-10-11T12:51:03.771Z,51.80
2022-10-11T12:53:31.443Z,51.80
2022-10-11T12:55:59.123Z,51.80
2022-10-11T12:58:26.874Z,51.80
2022-10-11T13:00:55.180Z,52.00
2022-10-11T13:03:22.969Z,52.20
2022-10-11T13:05:53.741Z,52.00
2022-10-11T13:08:21.579Z,51.80
2022-10-11T13:10:49.417Z,51.70
2022-10-11T13:13:17.667Z,51.60
2022-10-11T13:15:45.357Z,51.70
2022-10-11T13:18:13.042Z,51.80
2022-10-11T13:20:42.488Z,51.90
2022-10-11T13:23:10.309Z,51.80
2022-10-11T13:25:38.104Z,51.60
2022-10-11T13:28:05.818Z,52.30
2022-10-11T13:30:34.330Z,51.80
2022-10-11T13:33:02.308Z,52.30
2022-10-11T13:35:30.025Z,52.40
2022-10-11T13:37:57.739Z,52.50
2022-10-11T13:40:25.509Z,52.40
2022-10-11T13:42:53.281Z,52.50
2022-10-11T13:45:21.140Z,52.50
2022-10-11T13:47:48.807Z,52.40
2022-10-11T13:50:16.594Z,53.00
2022-10-11T13:52:44.293Z,51.90
2022-10-11T13:55:14.878Z,46.30
2022-10-11T13:57:42.602Z,40.80
2022-10-11T14:00:10.305Z,36.40
2022-10-11T14:02:37.962Z,33.50
2022-10-11T14:05:05.601Z,31.40
2022-10-11T14:07:33.331Z,30.10
2022-10-11T14:10:01.095Z,28.90
2022-10-11T14:12:28.818Z,27.80
2022-10-11T14:14:57.404Z,27.00
2022-10-11T14:17:25.297Z,26.70
2022-10-11T14:19:52.980Z,26.70
2022-10-11T14:22:20.715Z,26.70
2022-10-11T14:24:48.429Z,26.90
2022-10-11T14:27:16.247Z,27.30
2022-10-11T14:29:55.569Z,27.80
2022-10-11T14:32:33.219Z,28.40
2022-10-11T14:35:02.218Z,29.10
2022-10-11T14:37:29.977Z,29.80
2022-10-11T14:39:57.654Z,30.50
2022-10-11T14:42:25.373Z,31.30
2022-10-11T14:44:53.096Z,32.30
2022-10-11T14:47:20.809Z,33.20
2022-10-11T14:49:48.475Z,33.90
2022-10-11T14:52:16.236Z,34.60
2022-10-11T14:54:43.945Z,35.40
2022-10-11T14:57:11.681Z,36.10
2022-10-11T14:59:39.682Z,36.60
2022-10-11T15:02:07.610Z,38.00
2022-10-11T15:04:35.514Z,37.90
2022-10-11T15:07:03.639Z,38.50
2022-10-11T15:09:31.704Z,39.10
2022-10-11T15:11:59.336Z,39.60
2022-10-11T15:14:27.132Z,40.20
2022-10-11T15:16:56.186Z,40.30
2022-10-11T15:19:23.903Z,40.80
2022-10-11T15:21:51.686Z,41.30
2022-10-11T15:24:20.885Z,41.70
2022-10-11T15:26:48.599Z,42.20
2022-10-11T15:29:17.626Z,42.60
2022-10-11T15:31:45.383Z,43.00
2022-10-11T15:34:13.041Z,43.40
2022-10-11T15:36:40.685Z,43.70
2022-10-11T15:39:08.432Z,44.10
2022-10-11T15:41:36.164Z,44.30
2022-10-11T15:44:03.839Z,44.60
2022-10-11T15:46:31.705Z,44.90
2022-10-11T15:49:03.252Z,45.90
2022-10-11T15:51:33.621Z,45.40
2022-10-11T15:54:01.351Z,45.30
2022-10-11T15:56:33.592Z,44.40
2022-10-11T15:59:02.020Z,43.50
2022-10-11T16:01:29.883Z,42.00
2022-10-11T16:03:57.620Z,40.30
2022-10-11T16:06:25.254Z,38.50
2022-10-11T16:08:53.117Z,36.70
2022-10-11T16:11:20.736Z,35.60
2022-10-11T16:13:48.412Z,35.20
2022-10-11T16:16:16.148Z,34.90
2022-10-11T16:18:43.829Z,35.00
2022-10-11T16:21:11.686Z,35.20
2022-10-11T16:23:39.396Z,35.90
2022-10-11T16:26:07.440Z,36.60
2022-10-11T16:28:35.670Z,37.00
2022-10-11T16:31:03.422Z,37.70
2022-10-11T16:33:31.870Z,38.20
2022-10-11T16:36:19.596Z,38.90
2022-10-11T16:38:47.297Z,39.20
2022-10-11T16:41:15.161Z,40.10
2022-10-11T16:43:42.864Z,40.60
2022-10-11T16:46:10.697Z,41.00
2022-10-11T16:48:38.413Z,41.40
2022-10-11T16:51:06.070Z,42.00
2022-10-11T16:53:33.909Z,42.50
2022-10-11T16:56:01.609Z,42.80
2022-10-11T16:58:29.494Z,43.30
2022-10-11T17:00:57.245Z,43.70
2022-10-11T17:03:24.902Z,44.10
2022-10-11T17:05:52.663Z,44.50
2022-10-11T17:08:20.414Z,45.00
2022-10-11T17:10:49.567Z,45.30
2022-10-11T17:13:17.224Z,45.60
2022-10-11T17:15:44.851Z,45.80
2022-10-11T17:18:17.625Z,46.00
2022-10-11T17:20:45.265Z,46.10
2022-10-11T17:23:17.794Z,46.40
2022-10-11T17:25:45.438Z,46.50
2022-10-11T17:28:13.137Z,46.80
2022-10-11T17:30:48.765Z,46.90
2022-10-11T17:33:21.593Z,47.00
2022-10-11T17:35:49.308Z,47.30
2022-10-11T17:38:19.771Z,47.40
2022-10-11T17:40:52.526Z,47.50
2022-10-11T17:43:24.508Z,47.40
2022-10-11T17:45:52.336Z,47.20
2022-10-11T17:48:20.001Z,47.00
2022-10-11T17:50:50.660Z,46.70
2022-10-11T17:53:18.565Z,46.30
2022-10-11T17:55:46.338Z,46.00
2022-10-11T17:58:14.442Z,45.70
2022-10-11T18:00:42.330Z,45.20
2022-10-11T18:03:10.076Z,44.80
2022-10-11T18:05:37.861Z,44.40
2022-10-11T18:08:05.565Z,44.30
2022-10-11T18:10:33.175Z,43.90
2022-10-11T18:13:05.763Z,44.10
2022-10-11T18:15:34.346Z,43.20
2022-10-11T18:18:04.619Z,42.80
2022-10-11T18:20:59.817Z,42.50
2022-10-11T18:23:29.171Z,42.20
2022-10-11T18:25:57.287Z,41.80
2022-10-11T18:28:25.128Z,41.50
2022-10-11T18:30:53.581Z,41.20
2022-10-11T18:33:21.630Z,41.20
2022-10-11T18:38:58.224Z,40.70
2022-10-11T18:41:30.762Z,41.00
2022-10-11T18:44:00.658Z,41.10
2022-10-11T18:46:28.532Z,41.30
2022-10-11T18:49:09.025Z,42.30
2022-10-11T18:51:41.803Z,42.10
2022-10-11T18:54:21.373Z,42.50
2022-10-11T18:56:49.359Z,43.00
2022-10-11T18:59:20.201Z,43.30
2022-10-11T19:01:48.402Z,43.70
2022-10-11T19:04:19.184Z,44.10
2022-10-11T19:06:48.071Z,44.40
2022-10-11T19:09:17.901Z,44.60
2022-10-11T19:11:46.944Z,44.90
2022-10-11T19:14:14.864Z,45.30
2022-10-11T19:16:43.051Z,45.40
2022-10-11T19:19:20.033Z,45.70
2022-10-11T19:21:52.884Z,46.00
2022-10-11T19:24:21.307Z,46.20
2022-10-11T19:26:49.240Z,46.40
2022-10-11T19:29:18.758Z,46.60
2022-10-11T19:31:46.466Z,46.80
2022-10-11T19:34:14.648Z,47.00
2022-10-11T19:36:42.911Z,47.10
2022-10-11T19:39:10.578Z,47.20
2022-10-11T19:41:38.268Z,47.40
2022-10-11T19:44:05.950Z,47.60
2022-10-11T19:49:25.296Z,47.80
2022-10-11T19:51:53.203Z,47.90
2022-10-11T19:54:21.201Z,48.10
2022-10-11T19:56:48.832Z,48.10
2022-10-11T19:59:16.527Z,48.30
2022-10-11T20:01:48.064Z,48.50
2022-10-11T20:04:47.182Z,48.50
2022-10-11T20:07:07.791Z,48.70
2022-10-11T20:09:35.631Z,48.90
2022-10-11T20:12:03.536Z,48.90
2022-10-11T20:14:31.246Z,49.10
2022-10-11T20:16:59.161Z,49.00
2022-10-11T20:19:30.537Z,49.20
2022-10-11T20:21:59.566Z,49.30
2022-10-11T20:24:30.798Z,49.20
2022-10-11T20:27:01.237Z,49.40
2022-10-11T20:29:32.203Z,49.50
2022-10-11T20:32:00.129Z,49.60
2022-10-11T20:34:28.296Z,49.70
2022-10-11T20:36:56.182Z,49.70
2022-10-11T20:39:23.919Z,49.80
2022-10-11T20:41:51.823Z,49.80
2022-10-11T20:44:19.555Z,49.80
2022-10-11T20:46:47.867Z,49.80
2022-10-11T20:49:15.805Z,50.00
2022-10-11T20:51:43.966Z,50.00
2022-10-11T20:54:12.152Z,50.10
2022-10-11T20:56:39.837Z,50.20
2022-10-11T20:59:07.567Z,50.20
2022-10-11T21:01:37.973Z,50.20
2022-10-11T21:04:05.681Z,50.20
2022-10-11T21:06:33.351Z,50.20
2022-10-11T21:09:01.202Z,50.30
2022-10-11T21:11:29.188Z,50.20
2022-10-11T21:13:57.263Z,50.30
2022-10-11T21:16:25.099Z,50.30
2022-10-11T21:18:52.879Z,50.30
2022-10-11T21:21:20.756Z,50.30
2022-10-11T21:23:48.393Z,50.30
2022-10-11T21:26:17.973Z,50.40
2022-10-11T21:28:45.797Z,50.50
2022-10-11T21:31:13.627Z,50.40
2022-10-11T21:33:41.304Z,50.40
2022-10-11T21:36:09.296Z,50.60
2022-10-11T21:38:36.992Z,50.70
2022-10-11T21:41:06.420Z,50.60
2022-10-11T21:43:34.147Z,50.80
2022-10-11T21:46:03.973Z,50.70
2022-10-11T21:48:31.691Z,50.80
2022-10-11T21:50:59.408Z,50.80
2022-10-11T21:53:27.127Z,51.00
2022-10-11T21:55:54.869Z,50.90
2022-10-11T21:58:22.560Z,51.00
2022-10-11T22:00:50.331Z,51.00
2022-10-11T22:03:18.020Z,51.00
2022-10-11T22:05:45.653Z,51.00
2022-10-11T22:08:13.662Z,51.00
2022-10-11T22:10:41.592Z,51.00
2022-10-11T22:13:09.498Z,51.00
2022-10-11T22:15:37.178Z,51.00
2022-10-11T22:18:04.866Z,51.00
2022-10-11T22:20:32.576Z,51.80
2022-10-11T22:23:02.760Z,51.10
2022-10-11T22:25:30.659Z,51.00
2022-10-11T22:27:58.314Z,51.10
2022-10-11T22:30:25.982Z,51.00
2022-10-11T22:32:53.813Z,51.00
2022-10-11T22:35:21.709Z,51.20
2022-10-11T22:37:50.342Z,51.10
2022-10-11T22:40:19.309Z,51.20
2022-10-11T22:42:46.984Z,51.10
2022-10-11T22:45:14.895Z,51.20
2022-10-11T22:47:42.561Z,51.20
2022-10-11T22:50:10.574Z,51.20
2022-10-11T22:55:31.332Z,51.30
2022-10-11T22:57:59.049Z,51.30
2022-10-11T23:00:26.710Z,51.20
2022-10-11T23:02:54.591Z,51.30
2022-10-11T23:05:22.200Z,51.20
2022-10-11T23:07:50.384Z,51.20
2022-10-11T23:10:18.100Z,51.20
2022-10-11T23:12:46.002Z,51.20
2022-10-11T23:15:13.685Z,51.20
2022-10-11T23:17:41.392Z,51.30
2022-10-11T23:20:09.259Z,51.30
2022-10-11T23:22:37.776Z,51.30
2022-10-11T23:25:19.902Z,51.30
2022-10-11T23:27:47.758Z,51.30
2022-10-11T23:30:15.679Z,51.40
2022-10-11T23:32:44.339Z,51.30
2022-10-11T23:35:12.943Z,51.40
2022-10-11T23:37:40.906Z,51.30
2022-10-11T23:40:08.849Z,51.50
2022-10-11T23:42:36.651Z,51.40
2022-10-11T23:45:04.365Z,51.50
2022-10-11T23:47:32.178Z,51.40
2022-10-11T23:50:00.039Z,51.40
2022-10-11T23:52:27.968Z,51.30
2022-10-11T23:54:56.285Z,51.30
2022-10-11T23:57:24.097Z,51.40
2022-10-11T23:59:51.922Z,51.30
